Search METAR Data

METAR Data for OTBD:

OTBD 241630Z AUTO 10006KT CAVOK 28/17 Q1004 NOSIG